Time;durP1;ratioP1;P1;durP2;ratioP2;P2;SDS_P1;SDS_P2;PMS_P1;PMS_P2;Temp;Humidity;BMP_temperature;BMP_pressure;BME280_temperature;BME280_humidity;BME280_pressure;Samples;Min_cycle;Max_cycle;Signal;HPM_P1;HPM_P2
2022/06/23 00:01:00;;;;;;;20.42;15.27;;;;;;;27.72;50.95;99212.97;4192210;28;20243;-71
2022/06/23 00:03:03;;;;;;;19.85;14.98;;;;;;;26.66;52.66;99221.50;4190475;28;20226;-71
2022/06/23 00:05:14;;;;;;;22.60;14.93;;;;;;;27.50;51.12;99213.38;4188915;28;20235;-71
2022/06/23 00:07:26;;;;;;;18.33;14.73;;;;;;;26.97;52.32;99224.06;4191789;28;20238;-71
2022/06/23 00:09:34;;;;;;;21.88;14.30;;;;;;;26.54;52.96;99216.38;4190859;28;20813;-71
2022/06/23 00:11:35;;;;;;;17.77;13.05;;;;;;;26.83;52.33;99213.78;4194334;28;20235;-71
2022/06/23 00:13:38;;;;;;;18.63;13.43;;;;;;;26.63;52.62;99205.69;4194861;28;20243;-71
2022/06/23 00:15:42;;;;;;;21.60;14.52;;;;;;;27.02;51.80;99194.84;4193177;28;20261;-70
2022/06/23 00:17:58;;;;;;;17.02;13.57;;;;;;;27.21;51.31;99192.31;4194197;28;20660;-70
2022/06/23 00:20:21;;;;;;;15.63;12.80;;;;;;;26.38;53.14;99193.75;4194601;28;20784;-71
2022/06/23 00:22:26;;;;;;;23.20;13.70;;;;;;;25.50;54.69;99193.03;4192707;28;20578;-72
2022/06/23 00:24:28;;;;;;;16.48;12.68;;;;;;;25.81;53.67;99181.31;4193689;28;20235;-71
2022/06/23 00:26:33;;;;;;;18.23;13.05;;;;;;;26.25;53.13;99165.19;4193335;28;20223;-71
2022/06/23 00:28:40;;;;;;;18.63;13.75;;;;;;;26.62;52.38;99166.72;4192807;28;20277;-71
2022/06/23 00:30:43;;;;;;;19.85;13.52;;;;;;;26.89;51.90;99166.28;4194557;28;20295;-71
2022/06/23 00:32:45;;;;;;;17.92;15.75;;;;;;;27.11;51.33;99170.53;4194312;28;20234;-72
2022/06/23 00:34:59;;;;;;;21.05;14.52;;;;;;;26.24;53.07;99176.38;4193720;28;20239;-71
2022/06/23 00:37:00;;;;;;;18.60;13.27;;;;;;;25.90;53.02;99193.31;4211005;28;20307;-72
2022/06/23 00:39:19;;;;;;;15.48;12.00;;;;;;;23.48;58.58;99205.06;4212122;28;20230;-72
2022/06/23 00:41:28;;;;;;;15.05;12.02;;;;;;;24.36;55.78;99195.69;4209103;28;21608;-71
2022/06/23 00:43:30;;;;;;;20.42;12.45;;;;;;;25.53;54.21;99181.63;4192333;28;20239;-71
2022/06/23 00:45:44;;;;;;;17.67;13.50;;;;;;;26.24;52.64;99174.44;4192091;28;21033;-71
2022/06/23 00:48:14;;;;;;;18.42;13.70;;;;;;;27.13;50.64;99182.00;4191374;28;20231;-71
2022/06/23 00:50:30;;;;;;;17.48;15.25;;;;;;;27.05;50.95;99193.47;4190872;28;21106;-71
2022/06/23 00:52:49;;;;;;;20.58;15.63;;;;;;;27.30;50.48;99197.13;4193437;28;20688;-71
2022/06/23 00:54:56;;;;;;;20.77;14.60;;;;;;;26.52;52.30;99211.19;4192510;28;20715;-71
2022/06/23 00:57:20;;;;;;;17.33;14.02;;;;;;;27.38;50.67;99193.81;4193616;28;20257;-71
2022/06/23 00:59:32;;;;;;;23.00;14.27;;;;;;;27.48;50.11;99212.03;4192953;28;20231;-71
2022/06/23 01:01:42;;;;;;;20.02;14.57;;;;;;;27.55;49.97;99216.06;4193326;28;20235;-72
2022/06/23 01:03:57;;;;;;;22.90;15.25;;;;;;;27.62;50.05;99213.06;4193705;28;20246;-71
2022/06/23 01:06:07;;;;;;;22.38;15.43;;;;;;;27.57;50.15;99213.88;4191085;28;20286;-71
2022/06/23 01:08:21;;;;;;;26.63;17.00;;;;;;;26.71;52.10;99219.56;4189636;28;20283;-71
2022/06/23 01:10:49;;;;;;;27.30;20.02;;;;;;;27.61;50.85;99198.56;4193234;28;20228;-71
2022/06/23 01:13:03;;;;;;;30.70;19.70;;;;;;;27.51;50.86;99208.72;4192081;28;20227;-71
2022/06/23 01:15:27;;;;;;;26.40;22.02;;;;;;;27.31;52.00;99206.97;4193057;28;20300;-72
2022/06/23 01:17:36;;;;;;;29.50;24.08;;;;;;;27.30;52.17;99200.69;4182912;28;20921;-71
2022/06/23 01:20:02;;;;;;;35.50;23.63;;;;;;;27.22;52.72;99193.91;4192559;28;20239;-71
2022/06/23 01:22:12;;;;;;;27.45;23.52;;;;;;;27.29;52.25;99190.06;4186421;28;20235;-71
2022/06/23 01:24:22;;;;;;;26.33;23.58;;;;;;;27.21;52.55;99203.22;4202525;28;20253;-71
2022/06/23 01:26:52;;;;;;;28.65;24.02;;;;;;;27.21;52.80;99192.31;4208859;28;20267;-72
2022/06/23 01:29:33;;;;;;;30.27;21.00;;;;;;;27.23;52.06;99200.22;4186190;28;20267;-71
2022/06/23 01:31:47;;;;;;;26.70;21.23;;;;;;;27.43;51.44;99202.78;4191319;28;20296;-71
2022/06/23 01:34:27;;;;;;;31.27;19.98;;;;;;;27.26;51.75;99205.06;4192433;28;20289;-71
2022/06/23 01:36:32;;;;;;;25.85;21.05;;;;;;;27.24;52.02;99213.56;4138558;28;20972;-71
2022/06/23 01:39:00;;;;;;;30.88;23.00;;;;;;;27.34;52.04;99207.22;4179724;28;20271;-71
2022/06/23 01:41:19;;;;;;;27.58;22.65;;;;;;;27.40;51.50;99221.66;4210220;28;20272;-71
2022/06/23 01:43:28;;;;;;;28.67;21.67;;;;;;;27.26;51.26;99214.09;4205291;28;20242;-71
2022/06/23 01:45:45;;;;;;;29.38;23.08;;;;;;;27.01;52.60;99203.28;4193910;28;20260;-71
2022/06/23 01:48:06;;;;;;;29.17;22.25;;;;;;;26.61;54.14;99199.72;4193031;28;20318;-71
2022/06/23 01:50:14;;;;;;;30.40;23.10;;;;;;;26.66;53.81;99202.41;4192987;28;20652;-71
2022/06/23 01:52:19;;;;;;;26.98;21.63;;;;;;;27.05;52.73;99204.38;4192977;28;20234;-71
2022/06/23 01:54:26;;;;;;;27.02;23.38;;;;;;;26.47;53.75;99213.91;4191074;28;20239;-71
2022/06/23 01:56:41;;;;;;;29.67;22.55;;;;;;;27.10;52.31;99201.66;4191085;28;20215;-71
2022/06/23 01:58:43;;;;;;;30.77;21.58;;;;;;;26.94;52.32;99208.25;4184949;28;20288;-72
2022/06/23 02:00:47;;;;;;;30.83;21.38;;;;;;;26.68;52.79;99220.09;4191527;28;20231;-71
2022/06/23 02:02:49;;;;;;;22.85;16.50;;;;;;;25.76;53.82;99212.94;4190876;28;20280;-71
2022/06/23 02:05:00;;;;;;;19.20;13.63;;;;;;;24.95;54.74;99214.44;4192495;28;20239;-71
2022/06/23 02:07:15;;;;;;;20.88;14.52;;;;;;;23.06;58.58;99222.00;4191920;28;20226;-71
2022/06/23 02:09:41;;;;;;;22.37;14.63;;;;;;;25.38;54.34;99198.75;4192245;28;20582;-71
2022/06/23 02:11:52;;;;;;;23.77;16.90;;;;;;;25.82;53.37;99204.75;4191371;28;20239;-71
2022/06/23 02:14:14;;;;;;;29.77;16.65;;;;;;;25.61;53.42;99221.09;4191724;28;20285;-71
2022/06/23 02:16:33;;;;;;;24.27;17.38;;;;;;;25.99;53.10;99218.91;4191536;28;20218;-71
2022/06/23 02:18:52;;;;;;;23.92;17.73;;;;;;;26.03;53.03;99224.63;4183914;28;20338;-71
2022/06/23 02:20:57;;;;;;;22.20;15.93;;;;;;;25.92;52.98;99234.69;4192195;28;20239;-71
2022/06/23 02:23:12;;;;;;;20.25;17.05;;;;;;;25.86;53.33;99228.41;4191356;28;20236;-71
2022/06/23 02:25:21;;;;;;;26.42;17.20;;;;;;;25.42;53.90;99239.84;4192163;28;20656;-71
2022/06/23 02:27:37;;;;;;;18.35;16.33;;;;;;;25.36;54.14;99243.66;4190286;28;20292;-71
2022/06/23 02:30:03;;;;;;;19.67;15.07;;;;;;;25.18;54.65;99234.88;4190683;28;20247;-71
2022/06/23 02:32:15;;;;;;;20.98;15.70;;;;;;;26.23;51.96;99234.66;4191919;28;20877;-71
2022/06/23 02:34:30;;;;;;;17.98;16.15;;;;;;;26.42;51.97;99229.44;4190993;28;20773;-71
2022/06/23 02:36:58;;;;;;;24.08;14.95;;;;;;;25.97;52.08;99240.97;4181794;28;20289;-71
2022/06/23 02:39:04;;;;;;;23.65;15.13;;;;;;;25.85;52.14;99247.78;4192183;28;20249;-71
2022/06/23 02:41:11;;;;;;;21.83;16.85;;;;;;;25.87;52.50;99240.16;4191482;28;20656;-71
2022/06/23 02:43:34;;;;;;;17.23;14.88;;;;;;;26.42;51.35;99234.88;4191643;28;20231;-71
2022/06/23 02:46:03;;;;;;;20.08;14.13;;;;;;;25.77;52.08;99244.50;4190943;28;20253;-71
2022/06/23 02:48:43;;;;;;;17.48;13.52;;;;;;;25.14;53.56;99241.13;4192346;28;20224;-71
2022/06/23 02:51:09;;;;;;;18.95;14.13;;;;;;;25.28;52.76;99244.97;4166217;28;20288;-71
2022/06/23 02:53:19;;;;;;;34.38;17.15;;;;;;;25.77;52.29;99232.78;4190957;28;20931;-71
2022/06/23 02:55:27;;;;;;;21.98;16.90;;;;;;;25.31;53.37;99247.16;4191802;28;20242;-71
2022/06/23 02:57:58;;;;;;;24.90;18.83;;;;;;;25.74;52.63;99231.41;4191099;28;20231;-72
2022/06/23 03:00:20;;;;;;;21.83;17.25;;;;;;;25.89;52.26;99230.59;4184158;28;20284;-72
2022/06/23 03:02:31;;;;;;;22.30;16.92;;;;;;;25.91;52.55;99233.06;4208855;28;20633;-70
2022/06/23 03:04:48;;;;;;;17.63;15.77;;;;;;;25.98;52.42;99225.44;4206515;28;20237;-72
2022/06/23 03:07:39;;;;;;;19.23;16.83;;;;;;;25.70;52.84;99235.78;4201201;28;20304;-72
2022/06/23 03:09:50;;;;;;;22.80;17.90;;;;;;;25.90;52.82;99243.13;4174467;28;20285;-72
2022/06/23 03:12:18;;;;;;;20.38;18.02;;;;;;;26.47;52.02;99230.25;4190486;28;20277;-72
2022/06/23 03:14:42;;;;;;;23.02;18.75;;;;;;;25.41;53.61;99249.94;4191529;28;20838;-71
2022/06/23 03:16:50;;;;;;;28.92;19.65;;;;;;;25.39;53.63;99254.81;4190625;28;20265;-71
2022/06/23 03:19:14;;;;;;;31.33;20.85;;;;;;;25.82;52.68;99243.69;4191154;28;20287;-71
2022/06/23 03:21:43;;;;;;;43.30;22.98;;;;;;;25.91;52.38;99244.78;4192146;28;20234;-71
2022/06/23 03:24:06;;;;;;;26.77;21.10;;;;;;;25.88;52.47;99245.31;4191087;28;20247;-71
2022/06/23 03:26:35;;;;;;;28.13;20.23;;;;;;;25.12;54.60;99252.28;4191127;28;20227;-71
2022/06/23 03:28:50;;;;;;;61.90;22.88;;;;;;;25.90;53.02;99237.69;4184061;28;20238;-71
2022/06/23 03:31:00;;;;;;;51.60;23.05;;;;;;;25.92;52.32;99251.84;4192118;28;20292;-72
2022/06/23 03:33:21;;;;;;;29.30;21.38;;;;;;;25.55;53.09;99254.84;4191216;28;20317;-71
2022/06/23 03:35:37;;;;;;;33.75;20.65;;;;;;;25.41;53.31;99260.81;4189379;28;20234;-72
2022/06/23 03:38:03;;;;;;;29.95;20.65;;;;;;;25.32;53.55;99265.09;4190847;28;20231;-72
2022/06/23 03:42:55;;;;;;;29.20;20.40;;;;;;;25.91;51.61;99257.56;4189772;28;20235;-72
2022/06/23 03:45:04;;;;;;;29.50;19.90;;;;;;;26.10;51.23;99266.00;4190691;28;20305;-70
2022/06/23 03:47:18;;;;;;;28.80;19.95;;;;;;;25.66;51.58;99272.00;4195050;28;20234;-72
2022/06/23 03:49:45;;;;;;;22.13;18.58;;;;;;;25.88;51.42;99260.81;4193155;28;20243;-71
2022/06/23 03:51:52;;;;;;;23.70;17.95;;;;;;;25.92;51.25;99273.63;4194476;28;20243;-72
2022/06/23 03:54:10;;;;;;;22.88;18.38;;;;;;;25.95;51.35;99264.94;4193655;28;20276;-72
2022/06/23 03:56:18;;;;;;;20.23;17.73;;;;;;;26.25;50.80;99257.00;4193460;28;20277;-72
2022/06/23 03:58:33;;;;;;;23.80;18.63;;;;;;;26.04;51.59;99267.13;4194790;28;20719;-72
2022/06/23 04:00:39;;;;;;;24.77;17.80;;;;;;;26.30;50.88;99265.16;4193143;28;20235;-71
2022/06/23 04:02:44;;;;;;;20.90;18.17;;;;;;;26.45;50.36;99272.50;4194606;28;20257;-71
2022/06/23 04:05:02;;;;;;;21.70;16.13;;;;;;;26.40;50.67;99277.97;4193288;28;20604;-71
2022/06/23 04:07:29;;;;;;;18.30;15.98;;;;;;;26.83;49.69;99275.69;4192093;28;20256;-71
2022/06/23 04:09:36;;;;;;;18.00;13.95;;;;;;;26.85;49.86;99284.41;4201255;28;20243;-71
2022/06/23 04:11:47;;;;;;;15.05;13.55;;;;;;;26.05;51.39;99296.81;4195672;28;20231;-71
2022/06/23 04:13:51;;;;;;;13.10;11.77;;;;;;;26.05;51.26;99288.66;4185620;28;20239;-71
2022/06/23 04:16:00;;;;;;;11.75;10.63;;;;;;;26.24;51.20;99282.63;4193325;28;20251;-71
2022/06/23 04:18:05;;;;;;;11.27;10.05;;;;;;;26.18;51.29;99281.81;4194423;28;20235;-71
2022/06/23 04:20:40;;;;;;;10.60;8.65;;;;;;;26.52;51.10;99273.03;4193297;28;20273;-71
2022/06/23 04:22:49;;;;;;;10.15;8.07;;;;;;;26.64;50.96;99276.31;4185284;28;20226;-71
2022/06/23 04:24:55;;;;;;;10.70;8.45;;;;;;;26.66;50.63;99273.31;4193858;28;20238;-71
2022/06/23 04:27:08;;;;;;;10.68;8.10;;;;;;;26.28;51.62;99281.78;4193296;28;20299;-71
2022/06/23 04:29:24;;;;;;;12.80;8.00;;;;;;;26.56;51.07;99273.34;4193466;28;20234;-71
2022/06/23 04:31:33;;;;;;;9.75;8.23;;;;;;;26.63;51.25;99276.56;4193918;28;20278;-71
2022/06/23 04:33:38;;;;;;;10.32;8.45;;;;;;;25.56;53.38;99286.41;4193064;28;20296;-71
2022/06/23 04:35:41;;;;;;;13.60;7.95;;;;;;;25.02;55.09;99257.69;4193410;28;20265;-70
2022/06/23 04:38:11;;;;;;;10.38;7.93;;;;;;;26.45;51.78;99250.69;4185394;28;20235;-70
2022/06/23 04:40:30;;;;;;;12.70;8.02;;;;;;;26.56;51.58;99256.97;4184641;28;20227;-70
2022/06/23 04:42:35;;;;;;;11.38;7.55;;;;;;;26.50;51.73;99261.59;4194072;28;20223;-70
2022/06/23 04:44:45;;;;;;;11.27;8.43;;;;;;;26.87;50.82;99263.94;4191472;28;20284;-69
2022/06/23 04:46:58;;;;;;;10.93;7.63;;;;;;;26.52;51.77;99273.03;4193484;28;20227;-70
2022/06/23 04:49:04;;;;;;;9.82;7.57;;;;;;;26.70;51.31;99266.19;4193233;28;20227;-70
2022/06/23 04:51:30;;;;;;;11.95;7.30;;;;;;;26.60;51.25;99268.94;4192905;28;20345;-70
2022/06/23 04:53:35;;;;;;;11.77;7.13;;;;;;;26.84;50.61;99275.41;4193764;28;20242;-70
2022/06/23 04:55:37;;;;;;;11.95;6.55;;;;;;;26.68;51.26;99271.91;4192462;28;20235;-70
2022/06/23 04:58:04;;;;;;;11.13;6.55;;;;;;;26.85;50.89;99271.56;4192338;28;20607;-70
2022/06/23 05:02:39;;;;;;;11.88;6.90;;;;;;;24.54;57.41;99230.56;4140746;28;20600;-70
2022/06/23 05:04:44;;;;;;;13.48;7.20;;;;;;;24.15;57.91;99240.91;4140803;28;20626;-71
2022/06/23 05:06:55;;;;;;;13.25;6.88;;;;;;;25.36;55.25;99241.75;4141269;28;20324;-71
2022/06/23 05:09:06;;;;;;;11.77;7.60;;;;;;;25.57;54.70;99241.78;4139378;28;20229;-71
2022/06/23 05:11:43;;;;;;;10.70;7.75;;;;;;;26.55;52.10;99255.34;4140466;28;20290;-71
2022/06/23 05:13:55;;;;;;;12.00;8.38;;;;;;;26.42;52.25;99278.50;4139914;28;20248;-71
2022/06/23 05:16:12;;;;;;;12.43;7.65;;;;;;;25.26;55.48;99268.09;4141343;28;20237;-71
2022/06/23 05:18:23;;;;;;;12.25;7.95;;;;;;;26.86;52.22;99264.22;4140693;28;20658;-71
2022/06/23 05:20:57;;;;;;;13.05;8.18;;;;;;;25.24;55.58;99279.25;4136660;28;20226;-71
2022/06/23 05:23:02;;;;;;;12.20;7.60;;;;;;;25.49;55.69;99269.53;4149517;28;20241;-71
2022/06/23 05:25:16;;;;;;;10.77;7.60;;;;;;;25.86;54.84;99273.91;4161986;28;20227;-71
2022/06/23 05:27:26;;;;;;;11.77;7.63;;;;;;;27.04;51.68;99273.69;4167510;28;20239;-71
2022/06/23 05:29:55;;;;;;;11.43;8.50;;;;;;;27.44;51.11;99282.75;4164858;28;20301;-71
2022/06/23 05:32:02;;;;;;;11.90;7.60;;;;;;;27.29;50.89;99291.06;4152764;28;20232;-71
2022/06/23 05:34:13;;;;;;;11.90;7.40;;;;;;;26.71;52.60;99309.53;4155377;28;20283;-71
2022/06/23 05:36:27;;;;;;;11.32;7.25;;;;;;;26.65;53.07;99288.03;4155898;28;20294;-71
2022/06/23 05:38:30;;;;;;;13.50;7.32;;;;;;;27.74;50.36;99300.06;4156411;28;20252;-71
2022/06/23 05:40:38;;;;;;;13.40;7.80;;;;;;;26.31;53.86;99305.78;4155414;28;20231;-71
2022/06/23 05:42:46;;;;;;;12.95;7.60;;;;;;;26.35;54.19;99286.97;4153052;28;20228;-71
2022/06/23 05:44:56;;;;;;;12.25;6.30;;;;;;;24.93;57.18;99309.03;4155076;28;20244;-71
2022/06/23 05:47:00;;;;;;;12.35;6.82;;;;;;;24.82;58.04;99297.31;4154530;28;20236;-69
2022/06/23 05:49:18;;;;;;;13.55;6.88;;;;;;;25.20;56.78;99289.03;4157614;28;20232;-71
2022/06/23 05:51:30;;;;;;;15.07;6.50;;;;;;;24.93;57.24;99302.81;4157082;28;20601;-70
2022/06/23 05:53:41;;;;;;;16.08;7.15;;;;;;;26.59;54.33;99281.78;4154961;28;20776;-70
2022/06/23 05:55:56;;;;;;;10.57;6.38;;;;;;;25.54;56.44;99294.03;4155520;28;20753;-70
2022/06/23 05:58:14;;;;;;;15.60;7.40;;;;;;;25.22;57.99;99286.84;4153490;28;20236;-70
2022/06/23 06:00:35;;;;;;;13.35;6.97;;;;;;;25.52;56.12;99297.00;4155605;28;20228;-70
2022/06/23 06:02:46;;;;;;;10.77;6.20;;;;;;;24.97;57.89;99293.84;4155961;28;20233;-72
2022/06/23 06:04:53;;;;;;;11.07;6.47;;;;;;;26.96;52.71;99285.16;4154545;28;20335;-70
2022/06/23 06:06:56;;;;;;;10.32;6.45;;;;;;;26.54;53.20;99298.16;4158961;28;20236;-71
2022/06/23 06:11:21;;;;;;;13.48;5.72;;;;;;;27.84;49.61;99316.38;4171520;28;20232;-71
2022/06/23 06:13:26;;;;;;;8.27;6.15;;;;;;;27.25;51.64;99324.38;4151914;28;20240;-71
2022/06/23 06:15:32;;;;;;;12.60;5.93;;;;;;;27.36;51.46;99313.38;4159181;28;20250;-71
2022/06/23 06:17:36;;;;;;;12.77;5.78;;;;;;;26.38;53.50;99319.13;4160915;28;20228;-71
2022/06/23 06:19:37;;;;;;;10.10;6.95;;;;;;;27.08;52.36;99302.06;4160790;28;20244;-71
2022/06/23 06:21:39;;;;;;;11.75;6.78;;;;;;;27.93;49.94;99302.91;4147054;28;20245;-71
2022/06/23 06:24:09;;;;;;;13.23;6.07;;;;;;;27.02;51.58;99319.53;4136189;28;20242;-71
2022/06/23 06:26:15;;;;;;;14.43;7.00;;;;;;;24.80;56.63;99310.38;4148698;28;20311;-71
2022/06/23 06:28:20;;;;;;;16.33;7.28;;;;;;;24.90;57.59;99292.44;4147485;28;20302;-71
2022/06/23 06:30:30;;;;;;;10.73;6.07;;;;;;;25.26;56.09;99293.41;4152929;28;20229;-72
2022/06/23 06:32:35;;;;;;;11.52;6.30;;;;;;;26.83;53.27;99268.31;4144676;28;20565;-72
2022/06/23 06:34:42;;;;;;;11.25;6.20;;;;;;;27.89;50.69;99296.41;4151789;28;20232;-71
2022/06/23 06:36:48;;;;;;;9.05;6.28;;;;;;;28.08;50.04;99310.97;4153744;28;20291;-71
2022/06/23 06:38:51;;;;;;;13.70;6.55;;;;;;;28.29;49.64;99313.56;4163131;28;20483;-71
2022/06/23 06:40:56;;;;;;;15.80;6.43;;;;;;;28.23;49.86;99314.72;4174577;28;20306;-71
2022/06/23 06:43:03;;;;;;;12.32;6.25;;;;;;;28.08;50.07;99330.13;4144616;28;20234;-71
2022/06/23 06:45:09;;;;;;;11.60;6.25;;;;;;;27.34;51.86;99327.31;4144172;28;20229;-71
2022/06/23 06:47:29;;;;;;;14.20;6.20;;;;;;;27.49;51.99;99306.50;4144635;28;20283;-72
2022/06/23 06:49:32;;;;;;;11.15;6.95;;;;;;;27.06;53.02;99310.53;4149945;28;20271;-71
2022/06/23 06:51:34;;;;;;;11.23;5.95;;;;;;;26.97;53.38;99306.72;4136962;28;20232;-71
2022/06/23 06:53:59;;;;;;;8.63;5.38;;;;;;;27.49;52.00;99306.50;4160042;28;20732;-71
2022/06/23 06:56:16;;;;;;;13.00;6.55;;;;;;;26.37;54.73;99289.41;4138368;28;20911;-71
2022/06/23 06:58:24;;;;;;;9.50;5.97;;;;;;;25.98;55.34;99301.72;4141889;28;20299;-71
2022/06/23 07:00:33;;;;;;;16.27;6.55;;;;;;;26.99;52.91;99295.53;4142477;28;20717;-71
2022/06/23 07:02:42;;;;;;;13.30;7.18;;;;;;;28.35;50.05;99301.47;4142739;28;20256;-71
2022/06/23 07:05:09;;;;;;;10.38;5.93;;;;;;;26.86;53.58;99308.69;4143392;28;20256;-71
2022/06/23 07:07:17;;;;;;;12.50;6.32;;;;;;;25.28;56.55;99318.44;4143662;28;20691;-70
2022/06/23 07:09:33;;;;;;;11.52;6.20;;;;;;;25.56;56.68;99303.56;4142308;28;20238;-71
2022/06/23 07:11:42;;;;;;;13.65;6.50;;;;;;;25.58;56.25;99303.31;4142483;28;20237;-71
2022/06/23 07:14:45;;;;;;;8.68;5.90;;;;;;;25.64;56.70;99288.59;4150743;28;20298;-70
2022/06/23 07:16:54;;;;;;;15.80;6.65;;;;;;;25.16;57.92;99301.53;4126794;28;21088;-71
2022/06/23 07:19:16;;;;;;;9.85;5.95;;;;;;;26.28;55.28;99284.53;4144189;28;20737;-70
2022/06/23 07:21:28;;;;;;;10.57;5.47;;;;;;;27.51;52.47;99293.38;4126527;28;20236;-70
2022/06/23 07:23:45;;;;;;;9.77;5.43;;;;;;;27.65;52.57;99307.22;4142782;28;20240;-70
2022/06/23 07:25:51;;;;;;;9.15;5.57;;;;;;;27.00;53.16;99300.69;4134837;28;20287;-71
2022/06/23 07:28:00;;;;;;;11.75;5.35;;;;;;;28.14;51.53;99298.06;4138762;28;20245;-71
2022/06/23 07:30:05;;;;;;;8.23;5.70;;;;;;;28.81;49.79;99302.91;4143933;28;20295;-71
2022/06/23 07:32:28;;;;;;;9.90;5.55;;;;;;;28.84;49.86;99296.88;4142926;28;20233;-71
2022/06/23 07:34:37;;;;;;;10.10;6.05;;;;;;;29.06;48.89;99312.75;4143155;28;20299;-70
2022/06/23 07:36:46;;;;;;;10.95;5.65;;;;;;;29.05;48.57;99330.25;4143897;28;20287;-71
2022/06/23 07:39:04;;;;;;;9.65;5.63;;;;;;;27.56;51.88;99318.72;4131801;28;20241;-71
2022/06/23 07:41:17;;;;;;;7.90;5.15;;;;;;;28.67;49.38;99322.75;4131745;28;20233;-71
2022/06/23 07:43:34;;;;;;;12.10;6.72;;;;;;;28.39;49.87;99312.66;4136125;28;20236;-71
2022/06/23 07:45:36;;;;;;;8.63;5.05;;;;;;;28.50;49.51;99305.97;4134156;28;20230;-70
2022/06/23 07:47:37;;;;;;;10.20;4.95;;;;;;;29.17;47.65;99303.28;4132423;28;20288;-71
2022/06/23 07:49:39;;;;;;;9.23;4.88;;;;;;;29.71;47.25;99303.91;4135762;28;20237;-70
2022/06/23 07:51:41;;;;;;;10.60;4.82;;;;;;;28.70;49.25;99313.19;4135783;28;20715;-70
2022/06/23 07:53:46;;;;;;;9.88;4.75;;;;;;;27.20;51.55;99316.19;4143352;28;20252;-70
2022/06/23 07:55:48;;;;;;;7.95;4.55;;;;;;;27.84;51.49;99285.50;4142405;28;20269;-70
2022/06/23 07:57:51;;;;;;;9.18;5.18;;;;;;;27.76;51.30;99281.47;4142303;28;20229;-70
2022/06/23 07:59:58;;;;;;;8.40;4.68;;;;;;;28.68;49.38;99288.00;4143114;28;20903;-70
2022/06/23 08:02:20;;;;;;;8.57;4.57;;;;;;;27.14;51.27;99306.41;4143171;28;20295;-71
2022/06/23 08:04:50;;;;;;;8.68;4.60;;;;;;;27.94;49.94;99274.50;4141769;28;20827;-71
2022/06/23 08:06:56;;;;;;;12.85;5.35;;;;;;;28.18;50.54;99286.31;4126590;28;20237;-71
2022/06/23 08:09:04;;;;;;;10.38;4.90;;;;;;;27.78;51.25;99287.47;4142370;28;20252;-71
2022/06/23 08:13:58;;;;;;;7.65;4.38;;;;;;;28.85;50.46;99273.84;4136500;28;20241;-71
2022/06/23 08:18:40;;;;;;;9.52;4.68;;;;;;;29.14;49.58;99272.97;4130864;28;20233;-71
2022/06/23 08:20:58;;;;;;;10.77;4.40;;;;;;;29.18;50.16;99285.75;4137575;28;20292;-71
2022/06/23 08:23:02;;;;;;;9.18;3.90;;;;;;;29.68;48.11;99270.81;4139003;28;20291;-70
2022/06/23 08:25:06;;;;;;;8.85;4.15;;;;;;;29.14;48.27;99284.72;4158385;28;20237;-70
2022/06/23 08:27:28;;;;;;;8.60;4.35;;;;;;;29.55;47.96;99280.59;4154677;28;20721;-70
2022/06/23 08:29:39;;;;;;;13.07;4.35;;;;;;;29.59;47.94;99265.19;4148794;28;20286;-71
2022/06/23 08:31:41;;;;;;;9.13;4.25;;;;;;;28.27;49.04;99266.56;4158979;28;20236;-70
2022/06/23 08:34:02;;;;;;;9.85;4.10;;;;;;;29.57;47.66;99270.16;4137319;28;20276;-70
2022/06/23 08:36:11;;;;;;;9.88;4.93;;;;;;;28.58;49.42;99256.13;4141261;28;20896;-70
2022/06/23 08:38:22;;;;;;;11.13;4.25;;;;;;;29.66;48.17;99250.00;4142807;28;20239;-70
2022/06/23 08:40:42;;;;;;;10.30;4.50;;;;;;;29.21;48.35;99251.53;4142793;28;20767;-70
2022/06/23 08:42:52;;;;;;;8.73;4.53;;;;;;;29.66;47.93;99252.75;4141323;28;20237;-70
2022/06/23 08:45:26;;;;;;;9.93;4.55;;;;;;;29.79;47.43;99243.00;4142639;28;20245;-71
2022/06/23 08:47:44;;;;;;;9.43;3.85;;;;;;;29.41;48.04;99251.22;4142756;28;20694;-71
2022/06/23 08:49:55;;;;;;;10.23;3.80;;;;;;;28.66;47.15;99240.97;4138345;28;20698;-71
2022/06/23 08:52:23;;;;;;;7.35;3.67;;;;;;;29.42;47.14;99236.44;4145274;28;20287;-72
2022/06/23 08:55:05;;;;;;;10.43;3.42;;;;;;;29.20;45.96;99247.13;4130952;28;20229;-70
2022/06/23 08:57:27;;;;;;;15.45;3.63;;;;;;;29.89;44.98;99254.88;4135526;28;20287;-71
2022/06/23 08:59:35;;;;;;;11.07;4.18;;;;;;;30.10;46.46;99252.59;4142594;28;20307;-71
2022/06/23 09:01:45;;;;;;;12.73;4.03;;;;;;;29.80;47.12;99236.38;4141522;28;20236;-71
2022/06/23 09:04:13;;;;;;;5.43;2.85;;;;;;;29.81;47.31;99228.97;4139943;28;20241;-71
2022/06/23 09:06:35;;;;;;;7.55;3.47;;;;;;;30.31;46.29;99228.38;4128476;28;20233;-71
2022/06/23 09:08:53;;;;;;;10.48;3.20;;;;;;;28.53;48.39;99237.84;4141219;28;20821;-71
2022/06/23 09:11:13;;;;;;;11.75;3.47;;;;;;;27.80;49.43;99225.16;4142732;28;20229;-70
2022/06/23 09:13:30;;;;;;;8.75;3.40;;;;;;;29.09;48.44;99210.88;4141442;28;20933;-71
2022/06/23 09:15:43;;;;;;;10.45;3.25;;;;;;;27.96;49.35;99213.00;4142209;28;20237;-71
2022/06/23 09:17:45;;;;;;;11.55;3.55;;;;;;;30.03;46.33;99203.66;4142481;28;20236;-72
2022/06/23 09:19:59;;;;;;;12.48;3.03;;;;;;;28.23;48.25;99211.66;4141756;28;20283;-71
2022/06/23 09:22:20;;;;;;;8.50;3.53;;;;;;;30.70;44.42;99214.13;4135816;28;21008;-72
2022/06/23 09:24:58;;;;;;;10.35;2.90;;;;;;;30.17;45.00;99234.63;4153456;28;20301;-72
2022/06/23 09:27:33;;;;;;;9.52;3.33;;;;;;;29.80;45.27;99219.94;4153741;28;20265;-71
2022/06/23 09:29:41;;;;;;;11.20;3.22;;;;;;;30.58;43.60;99214.63;4150475;28;20235;-71
2022/06/23 09:31:59;;;;;;;7.35;2.80;;;;;;;30.85;43.35;99215.75;4158545;28;20293;-71
2022/06/23 09:34:20;;;;;;;10.50;2.70;;;;;;;30.88;42.82;99212.41;4158980;28;20244;-71
2022/06/23 09:36:45;;;;;;;9.55;3.20;;;;;;;31.06;43.18;99218.03;4157348;28;20321;-71
2022/06/23 09:39:42;;;;;;;6.82;2.67;;;;;;;30.05;44.85;99201.41;4133931;28;20233;-71
2022/06/23 09:42:03;;;;;;;8.45;2.80;;;;;;;31.02;42.98;99211.56;4087678;28;20287;-72
2022/06/23 09:44:17;;;;;;;9.27;3.10;;;;;;;31.17;42.69;99211.19;4141693;28;20229;-71
2022/06/23 09:46:36;;;;;;;8.48;2.42;;;;;;;30.74;43.81;99206.13;4142027;28;20229;-71
2022/06/23 09:48:59;;;;;;;8.00;2.53;;;;;;;30.66;42.64;99195.84;4144766;28;20237;-72
2022/06/23 09:51:17;;;;;;;9.18;2.80;;;;;;;29.35;44.51;99194.91;4133932;28;20657;-71
2022/06/23 09:53:27;;;;;;;8.02;2.60;;;;;;;30.90;42.87;99179.94;4144243;28;20772;-71
2022/06/23 09:55:40;;;;;;;9.90;2.70;;;;;;;29.88;44.36;99176.50;4143575;28;20256;-72
2022/06/23 09:57:56;;;;;;;7.90;2.83;;;;;;;31.16;41.41;99165.66;4152830;28;20945;-72
2022/06/23 10:00:36;;;;;;;6.90;2.38;;;;;;;31.36;40.85;99191.00;4161631;28;20259;-72
2022/06/23 10:03:19;;;;;;;8.35;2.10;;;;;;;31.29;41.00;99181.28;4159116;28;20674;-73
2022/06/23 10:05:39;;;;;;;5.93;2.25;;;;;;;31.48;40.14;99191.25;4160846;28;20231;-72
2022/06/23 10:07:43;;;;;;;7.38;2.40;;;;;;;31.66;39.81;99197.69;4141502;28;20241;-72
2022/06/23 10:10:13;;;;;;;5.13;2.28;;;;;;;29.90;41.53;99185.25;4144714;28;20233;-72
2022/06/23 10:12:20;;;;;;;4.38;2.40;;;;;;;31.77;39.95;99168.84;4148437;28;20224;-72
2022/06/23 10:14:54;;;;;;;7.13;2.42;;;;;;;31.89;39.46;99186.69;4151627;28;20239;-72
2022/06/23 10:17:21;;;;;;;7.03;2.55;;;;;;;31.64;40.26;99162.28;4138267;28;20294;-72
2022/06/23 10:19:29;;;;;;;6.60;2.63;;;;;;;31.98;40.50;99160.84;4144759;28;20225;-71
2022/06/23 10:21:36;;;;;;;6.93;2.80;;;;;;;31.89;40.20;99161.97;4138899;28;20236;-72
2022/06/23 10:23:48;;;;;;;8.02;2.38;;;;;;;31.37;41.46;99174.22;4147232;28;20294;-71
2022/06/23 10:25:55;;;;;;;8.13;2.40;;;;;;;31.13;41.97;99144.31;4159872;28;20236;-71
2022/06/23 10:28:25;;;;;;;8.18;2.85;;;;;;;31.39;41.45;99157.44;4145339;28;20233;-72
2022/06/23 10:30:30;;;;;;;6.18;3.00;;;;;;;31.20;42.21;99141.13;4144262;28;20221;-71
2022/06/23 10:32:54;;;;;;;9.20;3.20;;;;;;;31.20;42.25;99135.63;4142912;28;20398;-71
2022/06/23 10:35:24;;;;;;;8.95;2.97;;;;;;;32.15;41.37;99134.53;4143269;28;20237;-72
2022/06/23 10:37:36;;;;;;;8.35;3.17;;;;;;;30.85;43.02;99125.19;4145433;28;20761;-72